sensor_id;sensor_type;location;lat;lon;timestamp;pressure;altitude;pressure_sealevel;temperature;humidity
21821;BME280;11073;48.586;12.066;2023-05-14T00:00:22;96447.31;;;13.56;63.18
21821;BME280;11073;48.586;12.066;2023-05-14T00:02:53;96448.63;;;13.53;63.35
21821;BME280;11073;48.586;12.066;2023-05-14T00:05:23;96445.38;;;13.51;63.12
21821;BME280;11073;48.586;12.066;2023-05-14T00:07:51;96442.97;;;13.55;63.29
21821;BME280;11073;48.586;12.066;2023-05-14T00:10:20;96454.41;;;13.57;62.94
21821;BME280;11073;48.586;12.066;2023-05-14T00:12:50;96438.28;;;13.50;63.20
21821;BME280;11073;48.586;12.066;2023-05-14T00:15:19;96441.31;;;13.53;63.12
21821;BME280;11073;48.586;12.066;2023-05-14T00:17:47;96443.78;;;13.55;63.26
21821;BME280;11073;48.586;12.066;2023-05-14T00:20:19;96443.78;;;13.55;63.02
21821;BME280;11073;48.586;12.066;2023-05-14T00:22:48;96415.09;;;13.42;63.22
21821;BME280;11073;48.586;12.066;2023-05-14T00:25:17;96430.41;;;13.53;63.06
21821;BME280;11073;48.586;12.066;2023-05-14T00:27:45;96431.00;;;13.56;63.00
21821;BME280;11073;48.586;12.066;2023-05-14T00:30:14;96431.81;;;13.56;63.04
21821;BME280;11073;48.586;12.066;2023-05-14T00:32:43;96433.16;;;13.53;63.00
21821;BME280;11073;48.586;12.066;2023-05-14T00:35:12;96429.06;;;13.51;62.96
21821;BME280;11073;48.586;12.066;2023-05-14T00:37:42;96421.34;;;13.43;63.00
21821;BME280;11073;48.586;12.066;2023-05-14T00:40:12;96430.00;;;13.40;62.98
21821;BME280;11073;48.586;12.066;2023-05-14T00:42:41;96425.91;;;13.37;62.75
21821;BME280;11073;48.586;12.066;2023-05-14T00:45:09;96416.59;;;13.28;62.87
21821;BME280;11073;48.586;12.066;2023-05-14T00:47:58;96432.16;;;13.33;62.91
21821;BME280;11073;48.586;12.066;2023-05-14T00:50:27;96428.75;;;13.20;62.92
21821;BME280;11073;48.586;12.066;2023-05-14T00:52:57;96430.13;;;13.23;63.08
21821;BME280;11073;48.586;12.066;2023-05-14T00:55:27;96425.25;;;13.25;63.20
21821;BME280;11073;48.586;12.066;2023-05-14T00:57:58;96425.56;;;13.29;63.18
21821;BME280;11073;48.586;12.066;2023-05-14T01:00:27;96426.13;;;13.31;63.10
21821;BME280;11073;48.586;12.066;2023-05-14T01:02:56;96425.63;;;13.34;62.90
21821;BME280;11073;48.586;12.066;2023-05-14T01:05:31;96416.84;;;13.27;63.22
21821;BME280;11073;48.586;12.066;2023-05-14T01:08:13;96419.31;;;13.28;63.31
21821;BME280;11073;48.586;12.066;2023-05-14T01:10:51;96421.50;;;13.31;63.26
21821;BME280;11073;48.586;12.066;2023-05-14T01:13:26;96419.94;;;13.35;63.48
21821;BME280;11073;48.586;12.066;2023-05-14T01:15:57;96419.94;;;13.35;63.38
21821;BME280;11073;48.586;12.066;2023-05-14T01:18:27;96416.38;;;13.35;63.35
21821;BME280;11073;48.586;12.066;2023-05-14T01:20:55;96413.41;;;13.36;63.55
21821;BME280;11073;48.586;12.066;2023-05-14T01:23:25;96407.97;;;13.36;63.44
21821;BME280;11073;48.586;12.066;2023-05-14T01:25:54;96407.09;;;13.31;63.27
21821;BME280;11073;48.586;12.066;2023-05-14T01:28:27;96403.00;;;13.28;63.55
21821;BME280;11073;48.586;12.066;2023-05-14T01:31:05;96406.78;;;13.27;63.41
21821;BME280;11073;48.586;12.066;2023-05-14T01:33:35;96399.19;;;13.29;63.51
21821;BME280;11073;48.586;12.066;2023-05-14T01:36:05;96400.28;;;13.28;63.67
21821;BME280;11073;48.586;12.066;2023-05-14T01:38:36;96386.06;;;13.21;63.35
21821;BME280;11073;48.586;12.066;2023-05-14T01:41:06;96394.03;;;13.28;63.71
21821;BME280;11073;48.586;12.066;2023-05-14T01:43:36;96391.56;;;13.26;63.37
21821;BME280;11073;48.586;12.066;2023-05-14T01:46:05;96390.22;;;13.29;63.57
21821;BME280;11073;48.586;12.066;2023-05-14T01:48:34;96388.59;;;13.28;63.46
21821;BME280;11073;48.586;12.066;2023-05-14T01:51:03;96374.28;;;13.15;63.32
21821;BME280;11073;48.586;12.066;2023-05-14T01:53:32;96387.44;;;13.23;63.13
21821;BME280;11073;48.586;12.066;2023-05-14T01:56:03;96384.91;;;13.17;63.47
21821;BME280;11073;48.586;12.066;2023-05-14T01:58:32;96390.03;;;13.13;63.28
21821;BME280;11073;48.586;12.066;2023-05-14T02:01:01;96382.59;;;13.04;63.19
21821;BME280;11073;48.586;12.066;2023-05-14T02:03:29;96390.44;;;13.00;63.42
21821;BME280;11073;48.586;12.066;2023-05-14T02:05:58;96383.03;;;12.95;63.15
21821;BME280;11073;48.586;12.066;2023-05-14T02:08:27;96388.16;;;12.92;63.33
21821;BME280;11073;48.586;12.066;2023-05-14T02:10:55;96379.47;;;12.90;63.65
21821;BME280;11073;48.586;12.066;2023-05-14T02:13:26;96380.91;;;12.97;63.48
21821;BME280;11073;48.586;12.066;2023-05-14T02:15:55;96378.00;;;13.04;63.48
21821;BME280;11073;48.586;12.066;2023-05-14T02:18:24;96375.03;;;13.11;63.28
21821;BME280;11073;48.586;12.066;2023-05-14T02:20:53;96377.53;;;13.12;63.45
21821;BME280;11073;48.586;12.066;2023-05-14T02:23:22;96369.13;;;13.14;63.56
21821;BME280;11073;48.586;12.066;2023-05-14T02:26:08;96372.91;;;13.13;63.36
21821;BME280;11073;48.586;12.066;2023-05-14T02:28:38;96376.44;;;13.13;63.22
21821;BME280;11073;48.586;12.066;2023-05-14T02:31:06;96373.72;;;13.13;63.53
21821;BME280;11073;48.586;12.066;2023-05-14T02:33:35;96370.19;;;13.13;63.26
21821;BME280;11073;48.586;12.066;2023-05-14T02:36:05;96367.22;;;13.14;63.42
21821;BME280;11073;48.586;12.066;2023-05-14T02:38:33;96366.94;;;13.16;63.37
21821;BME280;11073;48.586;12.066;2023-05-14T02:41:02;96363.41;;;13.15;63.55
21821;BME280;11073;48.586;12.066;2023-05-14T02:43:31;96366.13;;;13.15;63.48
21821;BME280;11073;48.586;12.066;2023-05-14T02:46:01;96366.88;;;13.11;63.48
21821;BME280;11073;48.586;12.066;2023-05-14T02:48:31;96365.03;;;13.11;63.47
21821;BME280;11073;48.586;12.066;2023-05-14T02:51:00;96359.59;;;13.11;63.38
21821;BME280;11073;48.586;12.066;2023-05-14T02:53:29;96364.75;;;13.13;63.62
21821;BME280;11073;48.586;12.066;2023-05-14T02:55:58;96360.41;;;13.12;63.55
21821;BME280;11073;48.586;12.066;2023-05-14T02:58:27;96350.56;;;13.06;63.20
21821;BME280;11073;48.586;12.066;2023-05-14T03:00:56;96344.03;;;13.07;63.20
21821;BME280;11073;48.586;12.066;2023-05-14T03:03:27;96349.16;;;13.03;63.33
21821;BME280;11073;48.586;12.066;2023-05-14T03:05:57;96345.13;;;13.06;63.47
21821;BME280;11073;48.586;12.066;2023-05-14T03:08:26;96344.31;;;13.05;63.50
21821;BME280;11073;48.586;12.066;2023-05-14T03:10:55;96327.66;;;13.02;63.42
21821;BME280;11073;48.586;12.066;2023-05-14T03:13:24;96348.13;;;13.09;63.39
21821;BME280;11073;48.586;12.066;2023-05-14T03:15:53;96344.59;;;13.09;63.67
21821;BME280;11073;48.586;12.066;2023-05-14T03:18:24;96336.91;;;13.01;63.59
21821;BME280;11073;48.586;12.066;2023-05-14T03:20:56;96349.72;;;13.05;63.55
21821;BME280;11073;48.586;12.066;2023-05-14T03:23:24;96347.00;;;13.05;63.47
21821;BME280;11073;48.586;12.066;2023-05-14T03:25:53;96354.84;;;13.02;63.33
21821;BME280;11073;48.586;12.066;2023-05-14T03:28:23;96342.88;;;12.97;63.41
21821;BME280;11073;48.586;12.066;2023-05-14T03:30:53;96343.16;;;13.01;63.62
21821;BME280;11073;48.586;12.066;2023-05-14T03:33:22;96341.25;;;13.02;63.80
21821;BME280;11073;48.586;12.066;2023-05-14T03:35:50;96341.84;;;13.04;63.62
21821;BME280;11073;48.586;12.066;2023-05-14T03:38:21;96342.91;;;13.03;63.54
21821;BME280;11073;48.586;12.066;2023-05-14T03:40:51;96344.78;;;13.02;63.35
21821;BME280;11073;48.586;12.066;2023-05-14T03:43:20;96347.78;;;13.01;63.55
21821;BME280;11073;48.586;12.066;2023-05-14T03:45:49;96347.47;;;12.97;63.33
21821;BME280;11073;48.586;12.066;2023-05-14T03:48:19;96343.06;;;12.91;63.59
21821;BME280;11073;48.586;12.066;2023-05-14T03:50:48;96345.44;;;12.87;63.55
21821;BME280;11073;48.586;12.066;2023-05-14T03:53:17;96345.78;;;12.91;63.52
21821;BME280;11073;48.586;12.066;2023-05-14T03:55:47;96344.69;;;12.92;63.62
21821;BME280;11073;48.586;12.066;2023-05-14T03:58:16;96342.25;;;12.90;63.55
21821;BME280;11073;48.586;12.066;2023-05-14T04:00:45;96349.31;;;12.91;63.41
21821;BME280;11073;48.586;12.066;2023-05-14T04:03:14;96346.03;;;12.89;63.57
21821;BME280;11073;48.586;12.066;2023-05-14T04:05:43;96335.59;;;12.81;63.59
21821;BME280;11073;48.586;12.066;2023-05-14T04:08:12;96345.72;;;12.86;63.48
21821;BME280;11073;48.586;12.066;2023-05-14T04:10:41;96340.03;;;12.87;63.47
21821;BME280;11073;48.586;12.066;2023-05-14T04:13:12;96344.38;;;12.88;63.69
21821;BME280;11073;48.586;12.066;2023-05-14T04:15:41;96352.84;;;12.92;63.78
21821;BME280;11073;48.586;12.066;2023-05-14T04:18:10;96338.72;;;12.90;63.73
21821;BME280;11073;48.586;12.066;2023-05-14T04:20:39;96336.75;;;12.85;63.54
21821;BME280;11073;48.586;12.066;2023-05-14T04:23:08;96314.31;;;12.73;63.66
21821;BME280;11073;48.586;12.066;2023-05-14T04:25:36;96341.34;;;12.85;63.43
21821;BME280;11073;48.586;12.066;2023-05-14T04:28:05;96331.88;;;12.87;63.67
21821;BME280;11073;48.586;12.066;2023-05-14T04:30:35;96333.56;;;12.93;63.86
21821;BME280;11073;48.586;12.066;2023-05-14T04:33:04;96332.75;;;12.93;63.91
21821;BME280;11073;48.586;12.066;2023-05-14T04:35:33;96317.22;;;12.88;63.59
21821;BME280;11073;48.586;12.066;2023-05-14T04:38:02;96338.25;;;12.98;63.59
21821;BME280;11073;48.586;12.066;2023-05-14T04:40:31;96318.47;;;12.81;63.41
21821;BME280;11073;48.586;12.066;2023-05-14T04:43:00;96343.69;;;12.98;63.80
21821;BME280;11073;48.586;12.066;2023-05-14T04:45:28;96335.19;;;12.94;63.53
21821;BME280;11073;48.586;12.066;2023-05-14T04:48:02;96317.72;;;12.85;63.73
21821;BME280;11073;48.586;12.066;2023-05-14T04:50:31;96344.44;;;12.93;63.53
21821;BME280;11073;48.586;12.066;2023-05-14T04:53:00;96350.50;;;13.01;63.55
21821;BME280;11073;48.586;12.066;2023-05-14T04:55:30;96340.63;;;12.94;63.71
21821;BME280;11073;48.586;12.066;2023-05-14T04:57:58;96339.31;;;12.97;63.44
21821;BME280;11073;48.586;12.066;2023-05-14T05:00:28;96353.56;;;13.09;63.50
21821;BME280;11073;48.586;12.066;2023-05-14T05:02:57;96322.69;;;12.93;63.52
21821;BME280;11073;48.586;12.066;2023-05-14T05:05:28;96345.94;;;13.06;63.53
21821;BME280;11073;48.586;12.066;2023-05-14T05:07:57;96323.63;;;13.04;63.30
21821;BME280;11073;48.586;12.066;2023-05-14T05:10:25;96324.94;;;13.02;63.16
21821;BME280;11073;48.586;12.066;2023-05-14T05:12:54;96347.63;;;13.12;63.13
21821;BME280;11073;48.586;12.066;2023-05-14T05:15:23;96349.31;;;13.18;63.20
21821;BME280;11073;48.586;12.066;2023-05-14T05:17:54;96351.28;;;13.23;63.43
21821;BME280;11073;48.586;12.066;2023-05-14T05:20:23;96348.84;;;13.21;62.98
21821;BME280;11073;48.586;12.066;2023-05-14T05:22:53;96346.41;;;13.25;63.01
21821;BME280;11073;48.586;12.066;2023-05-14T05:25:22;96335.97;;;13.17;62.98
21821;BME280;11073;48.586;12.066;2023-05-14T05:27:51;96331.94;;;13.19;63.06
21821;BME280;11073;48.586;12.066;2023-05-14T05:30:20;96343.31;;;13.16;62.77
21821;BME280;11073;48.586;12.066;2023-05-14T05:32:50;96351.03;;;13.24;62.92
21821;BME280;11073;48.586;12.066;2023-05-14T05:35:19;96350.00;;;13.31;62.82
21821;BME280;11073;48.586;12.066;2023-05-14T05:37:47;96347.28;;;13.31;62.87
21821;BME280;11073;48.586;12.066;2023-05-14T05:40:18;96329.44;;;13.18;62.59
21821;BME280;11073;48.586;12.066;2023-05-14T05:42:47;96336.38;;;13.26;62.63
21821;BME280;11073;48.586;12.066;2023-05-14T05:45:15;96326.72;;;13.18;62.56
21821;BME280;11073;48.586;12.066;2023-05-14T05:47:44;96341.22;;;13.23;62.64
21821;BME280;11073;48.586;12.066;2023-05-14T05:50:13;96339.91;;;13.26;62.57
21821;BME280;11073;48.586;12.066;2023-05-14T05:52:43;96332.69;;;13.15;62.62
21821;BME280;11073;48.586;12.066;2023-05-14T05:55:12;96345.09;;;13.28;62.83
21821;BME280;11073;48.586;12.066;2023-05-14T05:57:42;96347.34;;;13.36;62.59
21821;BME280;11073;48.586;12.066;2023-05-14T06:00:12;96329.28;;;13.24;62.54
21821;BME280;11073;48.586;12.066;2023-05-14T06:02:41;96328.09;;;13.15;62.64
21821;BME280;11073;48.586;12.066;2023-05-14T06:05:10;96342.97;;;13.35;62.82
21821;BME280;11073;48.586;12.066;2023-05-14T06:07:39;96341.84;;;13.31;62.68
21821;BME280;11073;48.586;12.066;2023-05-14T06:10:09;96356.22;;;13.26;62.53
21821;BME280;11073;48.586;12.066;2023-05-14T06:12:37;96358.25;;;13.14;62.88
21821;BME280;11073;48.586;12.066;2023-05-14T06:15:08;96274.88;;;12.65;62.81
21821;BME280;11073;48.586;12.066;2023-05-14T06:17:38;96349.81;;;13.15;62.85
21821;BME280;11073;48.586;12.066;2023-05-14T06:20:08;96336.63;;;13.02;62.97
21821;BME280;11073;48.586;12.066;2023-05-14T06:22:37;96332.97;;;13.13;62.97
21821;BME280;11073;48.586;12.066;2023-05-14T06:25:07;96349.19;;;13.30;63.05
21821;BME280;11073;48.586;12.066;2023-05-14T06:27:35;96360.94;;;13.36;62.95
21821;BME280;11073;48.586;12.066;2023-05-14T06:30:06;96351.09;;;13.30;62.82
21821;BME280;11073;48.586;12.066;2023-05-14T06:32:36;96350.81;;;13.31;62.97
21821;BME280;11073;48.586;12.066;2023-05-14T06:35:06;96357.38;;;13.35;62.91
21821;BME280;11073;48.586;12.066;2023-05-14T06:37:35;96356.25;;;13.31;62.66
21821;BME280;11073;48.586;12.066;2023-05-14T06:40:06;96347.06;;;13.37;63.16
21821;BME280;11073;48.586;12.066;2023-05-14T06:42:35;96340.88;;;13.42;62.85
21821;BME280;11073;48.586;12.066;2023-05-14T06:45:05;96312.00;;;13.36;62.72
21821;BME280;11073;48.586;12.066;2023-05-14T06:47:35;96346.97;;;13.59;62.69
21821;BME280;11073;48.586;12.066;2023-05-14T06:50:04;96336.16;;;13.64;62.65
21821;BME280;11073;48.586;12.066;2023-05-14T06:52:37;96329.69;;;13.70;62.55
21821;BME280;11073;48.586;12.066;2023-05-14T06:55:06;96338.22;;;13.89;62.41
21821;BME280;11073;48.586;12.066;2023-05-14T06:57:35;96318.34;;;13.84;62.23
21821;BME280;11073;48.586;12.066;2023-05-14T07:00:09;96355.50;;;14.10;62.02
21821;BME280;11073;48.586;12.066;2023-05-14T07:02:39;96340.59;;;14.18;61.69
21821;BME280;11073;48.586;12.066;2023-05-14T07:05:09;96332.44;;;14.23;61.49
21821;BME280;11073;48.586;12.066;2023-05-14T07:07:38;96343.63;;;14.26;61.42
21821;BME280;11073;48.586;12.066;2023-05-14T07:10:08;96344.47;;;14.32;61.29
21821;BME280;11073;48.586;12.066;2023-05-14T07:12:37;96345.88;;;14.34;61.16
21821;BME280;11073;48.586;12.066;2023-05-14T07:15:07;96349.72;;;14.44;61.13
21821;BME280;11073;48.586;12.066;2023-05-14T07:17:36;96340.25;;;14.51;60.88
21821;BME280;11073;48.586;12.066;2023-05-14T07:20:08;96339.44;;;14.51;60.83
21821;BME280;11073;48.586;12.066;2023-05-14T07:22:37;96339.19;;;14.57;60.56
21821;BME280;11073;48.586;12.066;2023-05-14T07:25:07;96332.09;;;14.61;60.16
21821;BME280;11073;48.586;12.066;2023-05-14T07:27:36;96293.41;;;14.49;59.98
21821;BME280;11073;48.586;12.066;2023-05-14T07:30:06;96290.72;;;14.65;60.03
21821;BME280;11073;48.586;12.066;2023-05-14T07:32:35;96320.22;;;14.88;59.76
21821;BME280;11073;48.586;12.066;2023-05-14T07:35:07;96321.00;;;14.78;59.52
21821;BME280;11073;48.586;12.066;2023-05-14T07:37:36;96314.19;;;14.76;59.54
21821;BME280;11073;48.586;12.066;2023-05-14T07:40:07;96321.56;;;14.90;59.42
21821;BME280;11073;48.586;12.066;2023-05-14T07:42:36;96303.06;;;14.93;59.34
21821;BME280;11073;48.586;12.066;2023-05-14T07:45:05;96294.06;;;14.92;58.82
21821;BME280;11073;48.586;12.066;2023-05-14T07:47:34;96304.44;;;15.10;58.93
21821;BME280;11073;48.586;12.066;2023-05-14T07:50:04;96316.22;;;15.21;59.04
21821;BME280;11073;48.586;12.066;2023-05-14T07:52:34;96316.75;;;15.28;58.67
21821;BME280;11073;48.586;12.066;2023-05-14T07:55:04;96296.56;;;15.24;58.35
21821;BME280;11073;48.586;12.066;2023-05-14T07:57:33;96287.28;;;15.20;58.08
21821;BME280;11073;48.586;12.066;2023-05-14T08:00:01;96311.56;;;15.42;58.03
21821;BME280;11073;48.586;12.066;2023-05-14T08:02:38;96303.66;;;15.40;57.85
21821;BME280;11073;48.586;12.066;2023-05-14T08:05:07;96310.75;;;15.52;57.82
21821;BME280;11073;48.586;12.066;2023-05-14T08:07:39;96294.38;;;15.41;57.69
21821;BME280;11073;48.586;12.066;2023-05-14T08:10:09;96308.84;;;15.52;57.67
21821;BME280;11073;48.586;12.066;2023-05-14T08:12:38;96310.50;;;15.58;57.48
21821;BME280;11073;48.586;12.066;2023-05-14T08:15:09;96308.59;;;15.59;57.29
21821;BME280;11073;48.586;12.066;2023-05-14T08:17:37;96317.59;;;15.69;57.32
21821;BME280;11073;48.586;12.066;2023-05-14T08:20:08;96314.03;;;15.64;57.06
21821;BME280;11073;48.586;12.066;2023-05-14T08:22:40;96304.47;;;15.56;57.05
21821;BME280;11073;48.586;12.066;2023-05-14T08:25:09;96314.91;;;15.64;57.08
21821;BME280;11073;48.586;12.066;2023-05-14T08:27:37;96313.75;;;15.60;56.93
21821;BME280;11073;48.586;12.066;2023-05-14T08:30:07;96308.00;;;15.57;56.77
21821;BME280;11073;48.586;12.066;2023-05-14T08:32:36;96311.59;;;15.57;56.92
21821;BME280;11073;48.586;12.066;2023-05-14T08:35:06;96302.00;;;15.50;56.91
21821;BME280;11073;48.586;12.066;2023-05-14T08:37:35;96296.56;;;15.50;57.07
21821;BME280;11073;48.586;12.066;2023-05-14T08:40:08;96294.13;;;15.53;56.98
21821;BME280;11073;48.586;12.066;2023-05-14T08:42:37;96231.94;;;15.25;57.20
21821;BME280;11073;48.586;12.066;2023-05-14T08:45:12;96250.47;;;15.48;56.88
21821;BME280;11073;48.586;12.066;2023-05-14T08:47:46;96305.88;;;15.79;57.01
21821;BME280;11073;48.586;12.066;2023-05-14T08:50:17;96296.03;;;15.83;56.90
21821;BME280;11073;48.586;12.066;2023-05-14T08:52:49;96305.28;;;15.92;57.01
21821;BME280;11073;48.586;12.066;2023-05-14T08:55:19;96288.91;;;15.97;56.97
21821;BME280;11073;48.586;12.066;2023-05-14T08:57:49;96295.19;;;16.08;56.98
21821;BME280;11073;48.586;12.066;2023-05-14T09:00:18;96298.69;;;16.19;56.83
21821;BME280;11073;48.586;12.066;2023-05-14T09:02:48;96278.50;;;16.10;56.69
21821;BME280;11073;48.586;12.066;2023-05-14T09:05:19;96295.72;;;16.15;56.69
21821;BME280;11073;48.586;12.066;2023-05-14T09:07:48;96288.06;;;16.12;56.40
21821;BME280;11073;48.586;12.066;2023-05-14T09:10:19;96283.13;;;16.14;56.53
21821;BME280;11073;48.586;12.066;2023-05-14T09:12:49;96288.03;;;16.22;56.52
21821;BME280;11073;48.586;12.066;2023-05-14T09:15:18;96285.03;;;16.24;56.61
21821;BME280;11073;48.586;12.066;2023-05-14T09:17:47;96288.28;;;16.26;56.32
21821;BME280;11073;48.586;12.066;2023-05-14T09:20:17;96283.09;;;16.30;55.75
21821;BME280;11073;48.586;12.066;2023-05-14T09:22:46;96274.69;;;16.11;55.87
21821;BME280;11073;48.586;12.066;2023-05-14T09:25:15;96279.84;;;16.22;56.01
21821;BME280;11073;48.586;12.066;2023-05-14T09:27:46;96278.41;;;16.40;55.94
21821;BME280;11073;48.586;12.066;2023-05-14T09:30:17;96262.44;;;16.68;55.95
21821;BME280;11073;48.586;12.066;2023-05-14T09:32:45;96266.16;;;17.31;55.46
21821;BME280;11073;48.586;12.066;2023-05-14T09:35:19;96272.16;;;17.68;54.68
21821;BME280;11073;48.586;12.066;2023-05-14T09:38:18;96259.44;;;18.11;53.74
21821;BME280;11073;48.586;12.066;2023-05-14T09:40:50;96265.28;;;17.99;53.22
21821;BME280;11073;48.586;12.066;2023-05-14T09:43:21;96256.38;;;18.12;53.05
21821;BME280;11073;48.586;12.066;2023-05-14T09:45:49;96249.69;;;18.48;52.85
21821;BME280;11073;48.586;12.066;2023-05-14T09:48:19;96251.22;;;18.78;52.00
21821;BME280;11073;48.586;12.066;2023-05-14T09:50:48;96248.25;;;18.74;51.41
21821;BME280;11073;48.586;12.066;2023-05-14T09:53:18;96249.16;;;18.69;51.42
21821;BME280;11073;48.586;12.066;2023-05-14T09:55:47;96244.34;;;18.56;51.39
21821;BME280;11073;48.586;12.066;2023-05-14T09:58:16;96242.63;;;18.60;51.44
21821;BME280;11073;48.586;12.066;2023-05-14T10:00:46;96251.81;;;18.93;51.38
21821;BME280;11073;48.586;12.066;2023-05-14T10:03:17;96244.47;;;18.89;51.10
21821;BME280;11073;48.586;12.066;2023-05-14T10:05:48;96243.75;;;19.02;50.76
21821;BME280;11073;48.586;12.066;2023-05-14T10:08:22;96241.81;;;18.84;50.40
21821;BME280;11073;48.586;12.066;2023-05-14T10:10:53;96244.69;;;18.73;50.41
21821;BME280;11073;48.586;12.066;2023-05-14T10:13:25;96244.25;;;19.04;50.36
21821;BME280;11073;48.586;12.066;2023-05-14T10:16:00;96247.59;;;19.01;50.21
21821;BME280;11073;48.586;12.066;2023-05-14T10:18:39;96247.97;;;18.94;50.19
21821;BME280;11073;48.586;12.066;2023-05-14T10:21:09;96245.66;;;18.83;50.27
21821;BME280;11073;48.586;12.066;2023-05-14T10:23:39;96250.00;;;18.65;50.18
21821;BME280;11073;48.586;12.066;2023-05-14T10:26:09;96247.00;;;18.61;50.58
21821;BME280;11073;48.586;12.066;2023-05-14T10:28:38;96243.06;;;18.72;50.68
21821;BME280;11073;48.586;12.066;2023-05-14T10:31:09;96224.38;;;18.74;50.42
21821;BME280;11073;48.586;12.066;2023-05-14T10:33:45;96237.44;;;19.01;50.44
21821;BME280;11073;48.586;12.066;2023-05-14T10:36:17;96236.81;;;19.42;51.33
21821;BME280;11073;48.586;12.066;2023-05-14T10:38:46;96238.38;;;19.48;50.30
21821;BME280;11073;48.586;12.066;2023-05-14T10:41:22;96233.31;;;19.37;50.10
21821;BME280;11073;48.586;12.066;2023-05-14T10:43:51;96232.03;;;19.48;49.83
21821;BME280;11073;48.586;12.066;2023-05-14T10:46:22;96234.47;;;19.68;49.91
21821;BME280;11073;48.586;12.066;2023-05-14T10:48:51;96233.59;;;19.87;49.73
21821;BME280;11073;48.586;12.066;2023-05-14T10:51:20;96230.03;;;20.27;49.04
21821;BME280;11073;48.586;12.066;2023-05-14T10:53:49;96227.69;;;20.76;48.44
21821;BME280;11073;48.586;12.066;2023-05-14T10:56:18;96226.91;;;21.11;47.49
21821;BME280;11073;48.586;12.066;2023-05-14T10:58:48;96223.25;;;21.02;46.84
21821;BME280;11073;48.586;12.066;2023-05-14T11:01:17;96221.44;;;20.98;46.69
21821;BME280;11073;48.586;12.066;2023-05-14T11:03:52;96225.47;;;20.64;46.50
21821;BME280;11073;48.586;12.066;2023-05-14T11:06:22;96219.28;;;20.58;46.19
21821;BME280;11073;48.586;12.066;2023-05-14T11:08:51;96215.59;;;20.63;46.09
21821;BME280;11073;48.586;12.066;2023-05-14T11:11:20;96211.69;;;20.78;45.97
21821;BME280;11073;48.586;12.066;2023-05-14T11:13:50;96208.06;;;20.69;45.93
21821;BME280;11073;48.586;12.066;2023-05-14T11:16:20;96208.06;;;20.69;45.99
21821;BME280;11073;48.586;12.066;2023-05-14T11:19:01;96201.03;;;20.99;46.21
21821;BME280;11073;48.586;12.066;2023-05-14T11:21:30;96206.06;;;21.19;45.36
21821;BME280;11073;48.586;12.066;2023-05-14T11:23:59;96199.38;;;20.75;45.65
21821;BME280;11073;48.586;12.066;2023-05-14T11:26:28;96199.81;;;21.05;45.69
21821;BME280;11073;48.586;12.066;2023-05-14T11:28:56;96199.09;;;21.35;45.30
21821;BME280;11073;48.586;12.066;2023-05-14T11:31:26;96191.47;;;21.32;44.83
21821;BME280;11073;48.586;12.066;2023-05-14T11:33:54;96192.16;;;21.38;44.52
21821;BME280;11073;48.586;12.066;2023-05-14T11:36:25;96179.72;;;21.40;44.52
21821;BME280;11073;48.586;12.066;2023-05-14T11:38:53;96180.81;;;21.17;43.99
21821;BME280;11073;48.586;12.066;2023-05-14T11:41:22;96180.72;;;20.86;43.81
21821;BME280;11073;48.586;12.066;2023-05-14T11:43:52;96178.63;;;20.42;44.09
21821;BME280;11073;48.586;12.066;2023-05-14T11:46:21;96177.00;;;20.41;44.21
21821;BME280;11073;48.586;12.066;2023-05-14T11:48:50;96171.53;;;20.54;44.76
21821;BME280;11073;48.586;12.066;2023-05-14T11:51:20;96164.13;;;20.77;45.08
21821;BME280;11073;48.586;12.066;2023-05-14T11:53:50;96165.81;;;21.01;44.57
21821;BME280;11073;48.586;12.066;2023-05-14T11:56:20;96175.91;;;21.14;44.87
21821;BME280;11073;48.586;12.066;2023-05-14T11:58:54;96168.38;;;20.83;44.18
21821;BME280;11073;48.586;12.066;2023-05-14T12:01:25;96166.00;;;20.68;44.17
21821;BME280;11073;48.586;12.066;2023-05-14T12:03:54;96157.28;;;20.88;43.87
21821;BME280;11073;48.586;12.066;2023-05-14T12:06:29;96153.78;;;21.19;43.09
21821;BME280;11073;48.586;12.066;2023-05-14T12:08:59;96158.66;;;21.22;43.13
21821;BME280;11073;48.586;12.066;2023-05-14T12:11:30;96154.16;;;21.04;42.89
21821;BME280;11073;48.586;12.066;2023-05-14T12:13:58;96154.78;;;21.01;43.11
21821;BME280;11073;48.586;12.066;2023-05-14T12:16:29;96146.28;;;21.33;42.84
21821;BME280;11073;48.586;12.066;2023-05-14T12:18:59;96145.72;;;21.23;42.49
21821;BME280;11073;48.586;12.066;2023-05-14T12:21:29;96139.75;;;21.07;42.37
21821;BME280;11073;48.586;12.066;2023-05-14T12:24:00;96131.28;;;20.95;42.43
21821;BME280;11073;48.586;12.066;2023-05-14T12:26:31;96129.13;;;20.91;42.53
21821;BME280;11073;48.586;12.066;2023-05-14T12:29:02;96122.44;;;20.84;42.80
21821;BME280;11073;48.586;12.066;2023-05-14T12:31:31;96123.00;;;20.72;42.62
21821;BME280;11073;48.586;12.066;2023-05-14T12:34:01;96116.75;;;20.80;42.81
21821;BME280;11073;48.586;12.066;2023-05-14T12:36:30;96111.59;;;20.79;42.80
21821;BME280;11073;48.586;12.066;2023-05-14T12:39:01;96110.78;;;21.01;43.59
21821;BME280;11073;48.586;12.066;2023-05-14T12:41:33;96113.81;;;21.44;42.73
21821;BME280;11073;48.586;12.066;2023-05-14T12:44:02;96106.75;;;21.52;42.45
21821;BME280;11073;48.586;12.066;2023-05-14T12:46:32;96102.25;;;21.64;42.09
21821;BME280;11073;48.586;12.066;2023-05-14T12:49:01;96104.50;;;21.62;41.70
21821;BME280;11073;48.586;12.066;2023-05-14T12:51:31;96093.41;;;21.45;41.42
21821;BME280;11073;48.586;12.066;2023-05-14T12:54:01;96100.72;;;21.50;41.67
21821;BME280;11073;48.586;12.066;2023-05-14T12:56:30;96096.97;;;21.85;41.34
21821;BME280;11073;48.586;12.066;2023-05-14T12:58:58;96094.72;;;22.44;41.28
21821;BME280;11073;48.586;12.066;2023-05-14T13:01:28;96099.59;;;22.73;40.73
21821;BME280;11073;48.586;12.066;2023-05-14T13:03:57;96095.56;;;22.53;40.63